createdAt,value
2023-05-08T00:00:19.670Z,19.75
2023-05-08T00:00:51.092Z,19.73
2023-05-08T00:01:22.494Z,19.73
2023-05-08T00:01:53.907Z,19.73
2023-05-08T00:02:25.368Z,19.74
2023-05-08T00:02:56.918Z,19.74
2023-05-08T00:03:28.709Z,19.73
2023-05-08T00:04:00.431Z,19.73
2023-05-08T00:04:32.011Z,19.72
2023-05-08T00:05:03.500Z,19.73
2023-05-08T00:05:34.945Z,19.72
2023-05-08T00:06:06.335Z,19.71
2023-05-08T00:06:37.756Z,19.72
2023-05-08T00:07:09.168Z,19.73
2023-05-08T00:07:40.553Z,19.72
2023-05-08T00:08:11.977Z,19.71
2023-05-08T00:08:43.404Z,19.72
2023-05-08T00:09:14.814Z,19.72
2023-05-08T00:09:46.216Z,19.71
2023-05-08T00:10:17.613Z,19.71
2023-05-08T00:10:49.059Z,19.72
2023-05-08T00:11:20.623Z,19.71
2023-05-08T00:11:52.023Z,19.72
2023-05-08T00:12:23.434Z,19.71
2023-05-08T00:12:54.892Z,19.71
2023-05-08T00:13:26.390Z,19.71
2023-05-08T00:13:57.811Z,19.70
2023-05-08T00:14:29.222Z,19.69
2023-05-08T00:15:00.632Z,19.70
2023-05-08T00:15:32.039Z,19.69
2023-05-08T00:16:03.482Z,19.68
2023-05-08T00:16:34.987Z,19.69
2023-05-08T00:17:06.495Z,19.70
2023-05-08T00:17:37.972Z,19.69
2023-05-08T00:18:09.436Z,19.69
2023-05-08T00:18:40.877Z,19.70
2023-05-08T00:19:12.282Z,19.70
2023-05-08T00:19:43.673Z,19.69
2023-05-08T00:20:15.327Z,19.69
2023-05-08T00:20:46.955Z,19.68
2023-05-08T00:21:18.364Z,19.68
2023-05-08T00:21:49.756Z,19.68
2023-05-08T00:22:21.159Z,19.68
2023-05-08T00:22:52.574Z,19.69
2023-05-08T00:23:23.972Z,19.68
2023-05-08T00:23:55.403Z,19.68
2023-05-08T00:24:26.806Z,19.69
2023-05-08T00:24:58.211Z,19.69
2023-05-08T00:25:29.659Z,19.68
2023-05-08T00:26:01.102Z,19.68
2023-05-08T00:26:32.538Z,19.67
2023-05-08T00:27:03.971Z,19.68
2023-05-08T00:27:35.382Z,19.67
2023-05-08T00:28:06.788Z,19.67
2023-05-08T00:28:38.188Z,19.66
2023-05-08T00:29:09.659Z,19.67
2023-05-08T00:29:41.085Z,19.67
2023-05-08T00:30:12.693Z,19.67
2023-05-08T00:30:44.338Z,19.65
2023-05-08T00:31:15.738Z,19.66
2023-05-08T00:31:47.173Z,19.67
2023-05-08T00:32:18.755Z,19.67
2023-05-08T00:32:50.311Z,19.65
2023-05-08T00:33:21.749Z,19.65
2023-05-08T00:33:53.172Z,19.65
2023-05-08T00:34:24.576Z,19.65
2023-05-08T00:34:55.978Z,19.64
2023-05-08T00:35:27.378Z,19.65
2023-05-08T00:35:58.803Z,19.65
2023-05-08T00:36:30.186Z,19.64
2023-05-08T00:37:01.571Z,19.64
2023-05-08T00:37:33.040Z,19.65
2023-05-08T00:38:04.458Z,19.64
2023-05-08T00:38:35.864Z,19.64
2023-05-08T00:39:07.272Z,19.64
2023-05-08T00:39:38.677Z,19.63
2023-05-08T00:40:10.260Z,19.63
2023-05-08T00:40:41.764Z,19.63
2023-05-08T00:41:13.197Z,19.63
2023-05-08T00:41:44.613Z,19.63
2023-05-08T00:42:16.032Z,19.62
2023-05-08T00:42:47.439Z,19.63
2023-05-08T00:43:18.825Z,19.62
2023-05-08T00:43:50.258Z,19.63
2023-05-08T00:44:21.683Z,19.63
2023-05-08T00:44:53.101Z,19.63
2023-05-08T00:45:24.523Z,19.62
2023-05-08T00:45:56.045Z,19.62
2023-05-08T00:46:27.506Z,19.62
2023-05-08T00:46:58.951Z,19.61
2023-05-08T00:47:30.378Z,19.62
2023-05-08T00:48:01.842Z,19.61
2023-05-08T00:48:33.246Z,19.62
2023-05-08T00:49:04.664Z,19.61
2023-05-08T00:49:36.100Z,19.62
2023-05-08T00:50:07.548Z,19.60
2023-05-08T00:50:38.992Z,19.61
2023-05-08T00:51:10.405Z,19.61
2023-05-08T00:51:41.823Z,19.60
2023-05-08T00:52:13.231Z,19.59
2023-05-08T00:52:44.638Z,19.59
2023-05-08T00:53:16.093Z,19.59
2023-05-08T00:53:47.478Z,19.59
2023-05-08T00:54:18.866Z,19.60
2023-05-08T00:54:50.274Z,19.59
2023-05-08T00:55:21.687Z,19.59
2023-05-08T00:55:53.110Z,19.59
2023-05-08T00:56:24.516Z,19.59
2023-05-08T00:56:55.914Z,19.59
2023-05-08T00:57:27.309Z,19.59
2023-05-08T00:57:58.717Z,19.59
2023-05-08T00:58:30.135Z,19.58
2023-05-08T00:59:01.539Z,19.58
2023-05-08T00:59:32.974Z,19.59
2023-05-08T01:00:04.423Z,19.58
2023-05-08T01:00:35.845Z,19.59
2023-05-08T01:01:07.290Z,19.59
2023-05-08T01:01:38.725Z,19.59
2023-05-08T01:02:10.220Z,19.58
2023-05-08T01:02:41.707Z,19.58
2023-05-08T01:03:13.223Z,19.59
2023-05-08T01:03:44.944Z,19.56
2023-05-08T01:04:16.487Z,19.57
2023-05-08T01:04:47.920Z,19.57
2023-05-08T01:05:19.329Z,19.58
2023-05-08T01:05:50.733Z,19.57
2023-05-08T01:06:22.163Z,19.57
2023-05-08T01:06:53.561Z,19.57
2023-05-08T01:07:24.969Z,19.57
2023-05-08T01:07:56.373Z,19.57
2023-05-08T01:08:27.798Z,19.56
2023-05-08T01:08:59.225Z,19.56
2023-05-08T01:09:30.674Z,19.57
2023-05-08T01:10:02.111Z,19.55
2023-05-08T01:10:33.530Z,19.55
2023-05-08T01:11:04.942Z,19.56
2023-05-08T01:11:36.372Z,19.55
2023-05-08T01:12:07.796Z,19.55
2023-05-08T01:12:39.251Z,19.54
2023-05-08T01:13:10.727Z,19.54
2023-05-08T01:13:42.167Z,19.54
2023-05-08T01:14:13.560Z,19.55
2023-05-08T01:14:45.006Z,19.55
2023-05-08T01:15:16.421Z,19.53
2023-05-08T01:15:47.844Z,19.53
2023-05-08T01:16:19.326Z,19.53
2023-05-08T01:16:50.787Z,19.53
2023-05-08T01:17:22.248Z,19.53
2023-05-08T01:17:53.691Z,19.53
2023-05-08T01:18:25.143Z,19.53
2023-05-08T01:18:56.548Z,19.53
2023-05-08T01:19:27.984Z,19.53
2023-05-08T01:19:59.405Z,19.52
2023-05-08T01:20:30.824Z,19.52
2023-05-08T01:21:02.227Z,19.51
2023-05-08T01:21:33.622Z,19.51
2023-05-08T01:22:05.055Z,19.52
2023-05-08T01:22:36.450Z,19.51
2023-05-08T01:23:07.882Z,19.50
2023-05-08T01:23:39.303Z,19.50
2023-05-08T01:24:10.727Z,19.51
2023-05-08T01:24:42.165Z,19.50
2023-05-08T01:25:13.565Z,19.51
2023-05-08T01:25:44.970Z,19.50
2023-05-08T01:26:16.403Z,19.49
2023-05-08T01:26:47.820Z,19.49
2023-05-08T01:27:19.210Z,19.50
2023-05-08T01:27:50.670Z,19.51
2023-05-08T01:28:22.087Z,19.49
2023-05-08T01:28:53.495Z,19.49
2023-05-08T01:29:24.891Z,19.49
2023-05-08T01:29:56.334Z,19.48
2023-05-08T01:30:27.738Z,19.47
2023-05-08T01:30:59.136Z,19.47
2023-05-08T01:31:30.551Z,19.47
2023-05-08T01:32:02.007Z,19.47
2023-05-08T01:32:33.446Z,19.47
2023-05-08T01:33:04.966Z,19.47
2023-05-08T01:33:36.453Z,19.46
2023-05-08T01:34:07.892Z,19.46
2023-05-08T01:34:39.366Z,19.46
2023-05-08T01:35:10.772Z,19.47
2023-05-08T01:35:42.184Z,19.47
2023-05-08T01:36:13.631Z,19.46
2023-05-08T01:36:45.031Z,19.46
2023-05-08T01:37:16.487Z,19.46
2023-05-08T01:37:47.899Z,19.46
2023-05-08T01:38:19.318Z,19.46
2023-05-08T01:38:51.221Z,19.46
2023-05-08T01:39:22.667Z,19.45
2023-05-08T01:39:54.091Z,19.46
2023-05-08T01:40:25.477Z,19.45
2023-05-08T01:40:56.928Z,19.47
2023-05-08T01:41:28.375Z,19.46
2023-05-08T01:41:59.778Z,19.45
2023-05-08T01:42:31.183Z,19.45
2023-05-08T01:43:02.598Z,19.45
2023-05-08T01:43:34.014Z,19.44
2023-05-08T01:44:05.409Z,19.44
2023-05-08T01:44:36.827Z,19.44
2023-05-08T01:45:08.243Z,19.44
2023-05-08T01:45:39.653Z,19.43
2023-05-08T01:46:11.139Z,19.43
2023-05-08T01:46:42.617Z,19.43
2023-05-08T01:47:14.103Z,19.44
2023-05-08T01:47:45.601Z,19.44
2023-05-08T01:48:17.055Z,19.43
2023-05-08T01:48:48.462Z,19.43
2023-05-08T01:49:19.871Z,19.42
2023-05-08T01:49:51.298Z,19.42
2023-05-08T01:50:22.715Z,19.43
2023-05-08T01:50:54.125Z,19.42
2023-05-08T01:51:25.556Z,19.42
2023-05-08T01:51:56.968Z,19.43
2023-05-08T01:52:28.451Z,19.43
2023-05-08T01:52:59.866Z,19.42
2023-05-08T01:53:31.271Z,19.42
2023-05-08T01:54:02.732Z,19.42
2023-05-08T01:54:34.128Z,19.40
2023-05-08T01:55:05.552Z,19.41
2023-05-08T01:55:36.957Z,19.41
2023-05-08T01:56:08.373Z,19.41
2023-05-08T01:56:39.783Z,19.41
2023-05-08T01:57:11.208Z,19.40
2023-05-08T01:57:42.594Z,19.40
2023-05-08T01:58:13.996Z,19.42
2023-05-08T01:58:45.402Z,19.40
2023-05-08T01:59:16.829Z,19.39
2023-05-08T01:59:48.244Z,19.40
2023-05-08T02:00:19.633Z,19.40
2023-05-08T02:00:51.088Z,19.40
2023-05-08T02:01:22.574Z,19.40
2023-05-08T02:01:54.097Z,19.38
2023-05-08T02:02:25.574Z,19.38
2023-05-08T02:02:57.135Z,19.39
2023-05-08T02:03:28.703Z,19.39
2023-05-08T02:04:00.256Z,19.36
2023-05-08T02:04:31.784Z,19.36
2023-05-08T02:05:03.201Z,19.38
2023-05-08T02:05:34.615Z,19.37
2023-05-08T02:06:06.020Z,19.37
2023-05-08T02:06:37.469Z,19.38
2023-05-08T02:07:08.894Z,19.36
2023-05-08T02:07:40.311Z,19.36
2023-05-08T02:08:11.718Z,19.36
2023-05-08T02:08:43.137Z,19.35
2023-05-08T02:09:14.546Z,19.34
2023-05-08T02:09:45.954Z,19.35
2023-05-08T02:10:17.412Z,19.34
2023-05-08T02:10:48.849Z,19.35
2023-05-08T02:11:20.260Z,19.34
2023-05-08T02:11:51.656Z,19.34
2023-05-08T02:12:23.102Z,19.34
2023-05-08T02:12:54.534Z,19.33
2023-05-08T02:13:26.025Z,19.34
2023-05-08T02:13:57.499Z,19.35
2023-05-08T02:14:28.909Z,19.33
2023-05-08T02:15:00.328Z,19.34
2023-05-08T02:15:31.820Z,19.33
2023-05-08T02:16:03.262Z,19.34
2023-05-08T02:16:34.794Z,19.34
2023-05-08T02:17:06.313Z,19.33
2023-05-08T02:17:37.835Z,19.33
2023-05-08T02:18:09.295Z,19.32
2023-05-08T02:18:40.710Z,19.33
2023-05-08T02:19:12.112Z,19.34
2023-05-08T02:19:43.513Z,19.33
2023-05-08T02:20:15.262Z,19.32
2023-05-08T02:20:46.806Z,19.32
2023-05-08T02:21:18.218Z,19.34
2023-05-08T02:21:49.646Z,19.33
2023-05-08T02:22:21.099Z,19.32
2023-05-08T02:22:52.509Z,19.32
2023-05-08T02:23:23.903Z,19.32
2023-05-08T02:23:55.322Z,19.32
2023-05-08T02:24:26.719Z,19.31
2023-05-08T02:24:58.126Z,19.31
2023-05-08T02:25:29.546Z,19.32
2023-05-08T02:26:00.968Z,19.31
2023-05-08T02:26:32.359Z,19.30
2023-05-08T02:27:03.782Z,19.30
2023-05-08T02:27:35.240Z,19.31
2023-05-08T02:28:06.650Z,19.30
2023-05-08T02:28:38.065Z,19.31
2023-05-08T02:29:09.457Z,19.31
2023-05-08T02:29:40.872Z,19.31
2023-05-08T02:30:12.486Z,19.30
2023-05-08T02:30:44.076Z,19.31
2023-05-08T02:31:15.521Z,19.29
2023-05-08T02:31:46.961Z,19.30
2023-05-08T02:32:18.581Z,19.30
2023-05-08T02:32:50.187Z,19.30
2023-05-08T02:33:21.607Z,19.28
2023-05-08T02:33:53.024Z,19.28
2023-05-08T02:34:24.432Z,19.29
2023-05-08T02:35:02.999Z,19.28
2023-05-08T02:35:35.132Z,19.28
2023-05-08T02:36:06.578Z,19.28
2023-05-08T02:36:37.994Z,19.28
2023-05-08T02:37:09.382Z,19.28
2023-05-08T02:37:40.772Z,19.27
2023-05-08T02:38:12.212Z,19.28
2023-05-08T02:38:43.638Z,19.27
2023-05-08T02:39:15.066Z,19.27
2023-05-08T02:39:46.490Z,19.27
2023-05-08T02:40:17.902Z,19.28
2023-05-08T02:40:49.332Z,19.27
2023-05-08T02:41:20.734Z,19.27
2023-05-08T02:41:52.134Z,19.28
2023-05-08T02:42:23.523Z,19.26
2023-05-08T02:42:54.919Z,19.26
2023-05-08T02:43:26.360Z,19.26
2023-05-08T02:43:57.774Z,19.27
2023-05-08T02:44:29.161Z,19.26
2023-05-08T02:45:00.575Z,19.25
2023-05-08T02:45:31.997Z,19.27
2023-05-08T02:46:03.533Z,19.26
2023-05-08T02:46:35.117Z,19.26
2023-05-08T02:47:07.292Z,19.26
2023-05-08T02:47:38.892Z,19.26
2023-05-08T02:48:10.320Z,19.26
2023-05-08T02:48:41.723Z,19.26
2023-05-08T02:49:13.138Z,19.25
2023-05-08T02:49:44.567Z,19.25
2023-05-08T02:50:16.195Z,19.25
2023-05-08T02:50:47.652Z,19.25
2023-05-08T02:51:19.057Z,19.24
2023-05-08T02:51:50.480Z,19.25
2023-05-08T02:52:21.886Z,19.25
2023-05-08T02:52:53.278Z,19.24
2023-05-08T02:53:24.726Z,19.23
2023-05-08T02:53:56.127Z,19.24
2023-05-08T02:54:27.526Z,19.24
2023-05-08T02:54:58.974Z,19.25
2023-05-08T02:55:30.378Z,19.24
2023-05-08T02:56:01.776Z,19.23
2023-05-08T02:56:33.174Z,19.23
2023-05-08T02:57:04.576Z,19.24
2023-05-08T02:57:35.982Z,19.23
2023-05-08T02:58:07.383Z,19.23
2023-05-08T02:58:38.809Z,19.23
2023-05-08T02:59:10.224Z,19.23
2023-05-08T02:59:41.657Z,19.22
2023-05-08T03:00:13.493Z,19.23
2023-05-08T03:00:45.108Z,19.22
2023-05-08T03:01:16.545Z,19.21
2023-05-08T03:01:48.052Z,19.21
2023-05-08T03:02:19.524Z,19.21
2023-05-08T03:02:51.034Z,19.21
2023-05-08T03:03:22.586Z,19.21
2023-05-08T03:03:54.249Z,19.21
2023-05-08T03:04:25.685Z,19.21
2023-05-08T03:04:57.106Z,19.22
2023-05-08T03:05:28.591Z,19.21
2023-05-08T03:05:59.993Z,19.20
2023-05-08T03:06:31.411Z,19.20
2023-05-08T03:07:02.844Z,19.20
2023-05-08T03:07:34.238Z,19.20
2023-05-08T03:08:05.653Z,19.19
2023-05-08T03:08:37.075Z,19.19
2023-05-08T03:09:08.488Z,19.19
2023-05-08T03:09:39.907Z,19.20
2023-05-08T03:10:11.456Z,19.20
2023-05-08T03:10:43.159Z,19.20
2023-05-08T03:11:14.558Z,19.18
2023-05-08T03:11:45.978Z,19.17
2023-05-08T03:12:17.386Z,19.18
2023-05-08T03:12:48.826Z,19.17
2023-05-08T03:13:20.359Z,19.17
2023-05-08T03:13:51.850Z,19.17
2023-05-08T03:14:23.290Z,19.17
2023-05-08T03:14:54.704Z,19.18
2023-05-08T03:15:26.143Z,19.17
2023-05-08T03:15:57.578Z,19.18
2023-05-08T03:16:29.160Z,19.17
2023-05-08T03:17:00.635Z,19.17
2023-05-08T03:17:32.097Z,19.18
2023-05-08T03:18:03.576Z,19.16
2023-05-08T03:18:35.014Z,19.17
2023-05-08T03:19:06.415Z,19.17
2023-05-08T03:19:37.830Z,19.19
2023-05-08T03:20:09.252Z,19.18
2023-05-08T03:20:40.693Z,19.18
2023-05-08T03:21:12.105Z,19.17
2023-05-08T03:21:43.519Z,19.18
2023-05-08T03:22:14.917Z,19.17
2023-05-08T03:22:46.328Z,19.17
2023-05-08T03:23:17.741Z,19.18
2023-05-08T03:23:49.157Z,19.17
2023-05-08T03:24:20.567Z,19.17
2023-05-08T03:24:51.995Z,19.16
2023-05-08T03:25:23.409Z,19.16
2023-05-08T03:25:54.846Z,19.17
2023-05-08T03:26:26.259Z,19.16
2023-05-08T03:26:57.662Z,19.16
2023-05-08T03:27:29.082Z,19.15
2023-05-08T03:28:00.491Z,19.15
2023-05-08T03:28:31.903Z,19.15
2023-05-08T03:29:03.313Z,19.15
2023-05-08T03:29:34.725Z,19.16
2023-05-08T03:30:06.160Z,19.16
2023-05-08T03:30:37.628Z,19.15
2023-05-08T03:31:09.090Z,19.15
2023-05-08T03:31:40.602Z,19.15
2023-05-08T03:32:12.040Z,19.15
2023-05-08T03:32:43.525Z,19.15
2023-05-08T03:33:14.965Z,19.15
2023-05-08T03:33:46.404Z,19.15
2023-05-08T03:34:17.810Z,19.14
2023-05-08T03:34:49.223Z,19.15
2023-05-08T03:35:20.616Z,19.15
2023-05-08T03:35:52.044Z,19.14
2023-05-08T03:36:23.427Z,19.13
2023-05-08T03:36:54.806Z,19.14
2023-05-08T03:37:26.193Z,19.15
2023-05-08T03:37:57.602Z,19.14
2023-05-08T03:38:29.002Z,19.15
2023-05-08T03:39:00.432Z,19.14
2023-05-08T03:39:31.831Z,19.14
2023-05-08T03:40:03.243Z,19.13
2023-05-08T03:40:34.667Z,19.14
2023-05-08T03:41:06.115Z,19.15
2023-05-08T03:41:37.525Z,19.14
2023-05-08T03:42:08.942Z,19.14
2023-05-08T03:42:40.349Z,19.13
2023-05-08T03:43:11.760Z,19.13
2023-05-08T03:43:43.190Z,19.12
2023-05-08T03:44:14.638Z,19.13
2023-05-08T03:44:46.058Z,19.12
2023-05-08T03:45:17.486Z,19.13
2023-05-08T03:45:48.923Z,19.12
2023-05-08T03:46:20.349Z,19.13
2023-05-08T03:46:51.814Z,19.12
2023-05-08T03:47:23.254Z,19.12
2023-05-08T03:47:54.736Z,19.12
2023-05-08T03:48:26.162Z,19.10
2023-05-08T03:48:57.564Z,19.11
2023-05-08T03:49:28.965Z,19.11
2023-05-08T03:50:00.367Z,19.11
2023-05-08T03:50:31.778Z,19.11
2023-05-08T03:51:03.248Z,19.10
2023-05-08T03:51:34.680Z,19.10
2023-05-08T03:52:06.071Z,19.10
2023-05-08T03:52:37.475Z,19.11
2023-05-08T03:53:08.886Z,19.10
2023-05-08T03:53:40.314Z,19.11
2023-05-08T03:54:11.731Z,19.11
2023-05-08T03:54:43.151Z,19.10
2023-05-08T03:55:14.575Z,19.10
2023-05-08T03:55:45.982Z,19.11
2023-05-08T03:56:17.363Z,19.10
2023-05-08T03:56:48.788Z,19.11
2023-05-08T03:57:20.198Z,19.11
2023-05-08T03:57:51.629Z,19.10
2023-05-08T03:58:23.057Z,19.11
2023-05-08T03:58:54.454Z,19.10
2023-05-08T03:59:25.861Z,19.10
2023-05-08T03:59:57.266Z,19.10
2023-05-08T04:00:28.692Z,19.09
2023-05-08T04:01:00.116Z,19.10
2023-05-08T04:01:31.537Z,19.11
2023-05-08T04:02:03.040Z,19.10
2023-05-08T04:02:34.608Z,19.10
2023-05-08T04:03:06.164Z,19.10
2023-05-08T04:03:37.831Z,19.11
2023-05-08T04:04:09.389Z,19.10
2023-05-08T04:04:40.841Z,19.10
2023-05-08T04:05:12.274Z,19.10
2023-05-08T04:05:43.685Z,19.10
2023-05-08T04:06:15.093Z,19.08
2023-05-08T04:06:50.573Z,19.10
2023-05-08T04:07:22.436Z,19.10
2023-05-08T04:07:53.856Z,19.08
2023-05-08T04:08:25.282Z,19.09
2023-05-08T04:08:56.680Z,19.07
2023-05-08T04:09:28.125Z,19.10
2023-05-08T04:09:59.528Z,19.09
2023-05-08T04:10:30.958Z,19.09
2023-05-08T04:11:02.362Z,19.10
2023-05-08T04:11:33.762Z,19.09
2023-05-08T04:12:05.160Z,19.10
2023-05-08T04:12:36.657Z,19.09
2023-05-08T04:13:08.183Z,19.09
2023-05-08T04:13:39.602Z,19.08
2023-05-08T04:14:11.005Z,19.10
2023-05-08T04:14:42.457Z,19.07
2023-05-08T04:15:14.006Z,19.09
2023-05-08T04:15:45.628Z,19.09
2023-05-08T04:16:17.128Z,19.07
2023-05-08T04:16:48.611Z,19.07
2023-05-08T04:17:20.302Z,19.06
2023-05-08T04:17:51.830Z,19.07
2023-05-08T04:18:23.291Z,19.07
2023-05-08T04:18:54.698Z,19.07
2023-05-08T04:19:26.093Z,19.07
2023-05-08T04:19:57.514Z,19.07
2023-05-08T04:20:28.944Z,19.06
2023-05-08T04:21:00.362Z,19.06
2023-05-08T04:21:31.758Z,19.07
2023-05-08T04:22:03.178Z,19.06
2023-05-08T04:22:34.616Z,19.06
2023-05-08T04:23:06.028Z,19.06
2023-05-08T04:23:37.440Z,19.05
2023-05-08T04:24:08.848Z,19.05
2023-05-08T04:24:40.257Z,19.06
2023-05-08T04:25:11.921Z,19.06
2023-05-08T04:25:43.488Z,19.05
2023-05-08T04:26:16.387Z,19.05
2023-05-08T04:26:48.036Z,19.05
2023-05-08T04:27:19.462Z,19.05
2023-05-08T04:27:50.868Z,19.05
2023-05-08T04:28:22.292Z,19.06
2023-05-08T04:28:53.732Z,19.06
2023-05-08T04:29:25.164Z,19.06
2023-05-08T04:29:56.566Z,19.07
2023-05-08T04:30:27.975Z,19.06
2023-05-08T04:30:59.363Z,19.07
2023-05-08T04:31:30.799Z,19.07
2023-05-08T04:32:02.267Z,19.05
2023-05-08T04:32:33.707Z,19.05
2023-05-08T04:33:05.189Z,19.06
2023-05-08T04:33:36.616Z,19.06
2023-05-08T04:34:08.150Z,19.06
2023-05-08T04:34:39.571Z,19.06
2023-05-08T04:35:11.090Z,19.06
2023-05-08T04:35:42.713Z,19.06
2023-05-08T04:36:14.109Z,19.06
2023-05-08T04:36:45.509Z,19.05
2023-05-08T04:37:16.931Z,19.05
2023-05-08T04:37:48.354Z,19.04
2023-05-08T04:38:19.776Z,19.05
2023-05-08T04:38:51.222Z,19.05
2023-05-08T04:39:22.670Z,19.05
2023-05-08T04:39:54.064Z,19.05
2023-05-08T04:40:25.466Z,19.04
2023-05-08T04:40:56.902Z,19.05
2023-05-08T04:41:28.502Z,19.04
2023-05-08T04:41:59.909Z,19.05
2023-05-08T04:42:31.302Z,19.05
2023-05-08T04:43:02.739Z,19.04
2023-05-08T04:43:34.170Z,19.03
2023-05-08T04:44:05.572Z,19.04
2023-05-08T04:44:36.983Z,19.04
2023-05-08T04:45:08.631Z,19.04
2023-05-08T04:45:40.073Z,19.04
2023-05-08T04:46:11.515Z,19.05
2023-05-08T04:46:42.945Z,19.05
2023-05-08T04:47:14.339Z,19.05
2023-05-08T04:47:45.774Z,19.06
2023-05-08T04:48:17.184Z,19.05
2023-05-08T04:48:48.580Z,19.06
2023-05-08T04:49:20.001Z,19.06
2023-05-08T04:49:51.433Z,19.06
2023-05-08T04:50:22.846Z,19.06
2023-05-08T04:50:54.239Z,19.09
2023-05-08T04:51:25.638Z,19.07
2023-05-08T04:51:57.048Z,19.08
2023-05-08T04:52:28.481Z,19.07
2023-05-08T04:52:59.886Z,19.09
2023-05-08T04:53:31.311Z,19.07
2023-05-08T04:54:02.756Z,19.08
2023-05-08T04:54:34.146Z,19.07
2023-05-08T04:55:05.606Z,19.08
2023-05-08T04:55:37.023Z,19.10
2023-05-08T04:56:08.437Z,19.09
2023-05-08T04:56:39.848Z,19.08
2023-05-08T04:57:11.265Z,19.10
2023-05-08T04:57:42.675Z,19.10
2023-05-08T04:58:14.081Z,19.08
2023-05-08T04:58:45.489Z,19.08
2023-05-08T04:59:16.889Z,19.08
2023-05-08T04:59:48.270Z,19.07
2023-05-08T05:00:19.725Z,19.08
2023-05-08T05:00:51.157Z,19.07
2023-05-08T05:01:22.620Z,19.09
2023-05-08T05:01:54.086Z,19.09
2023-05-08T05:02:25.570Z,19.08
2023-05-08T05:02:57.070Z,19.07
2023-05-08T05:03:28.575Z,19.09
2023-05-08T05:03:59.991Z,19.09
2023-05-08T05:04:31.425Z,19.10
2023-05-08T05:05:02.853Z,19.09
2023-05-08T05:05:34.330Z,19.08
2023-05-08T05:06:05.742Z,19.11
2023-05-08T05:06:37.144Z,19.09
2023-05-08T05:07:08.573Z,19.11
2023-05-08T05:07:40.009Z,19.10
2023-05-08T05:08:11.412Z,19.10
2023-05-08T05:08:42.807Z,19.10
2023-05-08T05:09:14.203Z,19.10
2023-05-08T05:09:45.593Z,19.11
2023-05-08T05:10:17.037Z,19.10
2023-05-08T05:10:48.480Z,19.10
2023-05-08T05:11:19.889Z,19.10
2023-05-08T05:11:51.300Z,19.10
2023-05-08T05:12:22.700Z,19.10
2023-05-08T05:12:54.157Z,19.10
2023-05-08T05:13:25.614Z,19.11
2023-05-08T05:13:57.040Z,19.12
2023-05-08T05:14:28.440Z,19.11
2023-05-08T05:14:59.849Z,19.11
2023-05-08T05:15:31.293Z,19.11
2023-05-08T05:16:02.738Z,19.11
2023-05-08T05:16:34.217Z,19.11
2023-05-08T05:17:05.655Z,19.12
2023-05-08T05:17:37.122Z,19.11
2023-05-08T05:18:08.597Z,19.12
2023-05-08T05:18:40.053Z,19.12
2023-05-08T05:19:11.467Z,19.11
2023-05-08T05:19:42.882Z,19.12
2023-05-08T05:20:14.334Z,19.11
2023-05-08T05:20:45.770Z,19.12
2023-05-08T05:21:17.188Z,19.12
2023-05-08T05:21:48.577Z,19.12
2023-05-08T05:22:20.297Z,19.10
2023-05-08T05:22:51.714Z,19.11
2023-05-08T05:23:23.128Z,19.11
2023-05-08T05:23:54.541Z,19.12
2023-05-08T05:24:25.938Z,19.10
2023-05-08T05:24:57.344Z,19.10
2023-05-08T05:25:28.756Z,19.11
2023-05-08T05:26:00.176Z,19.11
2023-05-08T05:26:31.583Z,19.10
2023-05-08T05:27:02.999Z,19.10
2023-05-08T05:27:34.429Z,19.10
2023-05-08T05:28:05.834Z,19.11
2023-05-08T05:28:37.250Z,19.10
2023-05-08T05:29:08.751Z,19.10
2023-05-08T05:29:40.225Z,19.10
2023-05-08T05:30:11.814Z,19.10
2023-05-08T05:30:43.452Z,19.10
2023-05-08T05:31:14.862Z,19.10
2023-05-08T05:31:46.350Z,19.11
2023-05-08T05:32:17.845Z,19.09
2023-05-08T05:32:49.266Z,19.11
2023-05-08T05:33:20.722Z,19.11
2023-05-08T05:33:52.134Z,19.10
2023-05-08T05:34:23.540Z,19.10
2023-05-08T05:34:54.955Z,19.10
2023-05-08T05:35:26.384Z,19.11
2023-05-08T05:35:57.787Z,19.10
2023-05-08T05:36:29.175Z,19.11
2023-05-08T05:37:00.598Z,19.11
2023-05-08T05:37:32.079Z,19.11
2023-05-08T05:38:03.479Z,19.12
2023-05-08T05:38:34.877Z,19.11
2023-05-08T05:39:06.266Z,19.11
2023-05-08T05:39:37.699Z,19.12
2023-05-08T05:40:09.125Z,19.12
2023-05-08T05:40:40.512Z,19.12
2023-05-08T05:41:11.916Z,19.11
2023-05-08T05:41:43.334Z,19.11
2023-05-08T05:42:14.721Z,19.11
2023-05-08T05:42:46.150Z,19.13
2023-05-08T05:43:17.559Z,19.13
2023-05-08T05:43:48.966Z,19.12
2023-05-08T05:44:20.354Z,19.13
2023-05-08T05:44:51.772Z,19.14
2023-05-08T05:45:23.165Z,19.15
2023-05-08T05:45:54.579Z,19.15
2023-05-08T05:46:26.003Z,19.14
2023-05-08T05:46:57.505Z,19.14
2023-05-08T05:47:28.971Z,19.16
2023-05-08T05:48:00.460Z,19.16
2023-05-08T05:48:31.970Z,19.15
2023-05-08T05:49:03.434Z,19.15
2023-05-08T05:49:34.836Z,19.16
2023-05-08T05:50:06.264Z,19.16
2023-05-08T05:50:37.720Z,19.16
2023-05-08T05:51:09.142Z,19.16
2023-05-08T05:51:40.553Z,19.16
2023-05-08T05:52:11.959Z,19.16
2023-05-08T05:52:43.428Z,19.17
2023-05-08T05:53:14.830Z,19.17
2023-05-08T05:53:46.231Z,19.17
2023-05-08T05:54:17.627Z,19.18
2023-05-08T05:54:49.041Z,19.18
2023-05-08T05:55:20.462Z,19.18
2023-05-08T05:55:51.908Z,19.18
2023-05-08T05:56:23.304Z,19.18
2023-05-08T05:56:54.709Z,19.17
2023-05-08T05:57:26.159Z,19.17
2023-05-08T05:57:57.574Z,19.18
2023-05-08T05:58:28.979Z,19.19
2023-05-08T05:59:00.369Z,19.18
2023-05-08T05:59:31.793Z,19.19
2023-05-08T06:00:03.190Z,19.19
2023-05-08T06:00:34.592Z,19.19
2023-05-08T06:01:05.992Z,19.20
2023-05-08T06:01:37.391Z,19.19
2023-05-08T06:02:08.837Z,19.20
2023-05-08T06:02:40.714Z,19.20
2023-05-08T06:03:12.334Z,19.20
2023-05-08T06:03:43.887Z,19.20
2023-05-08T06:04:15.424Z,19.20
2023-05-08T06:04:46.861Z,19.21
2023-05-08T06:05:18.267Z,19.20
2023-05-08T06:05:49.674Z,19.21
2023-05-08T06:06:21.082Z,19.20
2023-05-08T06:06:52.497Z,19.22
2023-05-08T06:07:23.877Z,19.21
2023-05-08T06:07:55.311Z,19.22
2023-05-08T06:08:26.726Z,19.21
2023-05-08T06:08:58.152Z,19.22
2023-05-08T06:09:29.552Z,19.21
2023-05-08T06:10:00.948Z,19.21
2023-05-08T06:10:32.420Z,19.22
2023-05-08T06:11:03.823Z,19.22
2023-05-08T06:11:35.291Z,19.22
2023-05-08T06:12:06.727Z,19.20
2023-05-08T06:12:38.163Z,19.23
2023-05-08T06:13:09.772Z,19.24
2023-05-08T06:13:41.216Z,19.23
2023-05-08T06:14:12.604Z,19.23
2023-05-08T06:14:43.989Z,19.23
2023-05-08T06:15:15.554Z,19.22
2023-05-08T06:15:47.040Z,19.22
2023-05-08T06:16:18.469Z,19.22
2023-05-08T06:16:49.928Z,19.24
2023-05-08T06:17:21.378Z,19.23
2023-05-08T06:17:52.873Z,19.24
2023-05-08T06:18:24.368Z,19.23
2023-05-08T06:18:55.793Z,19.23
2023-05-08T06:19:27.213Z,19.24
2023-05-08T06:19:58.642Z,19.23
2023-05-08T06:20:30.058Z,19.23
2023-05-08T06:21:01.492Z,19.24
2023-05-08T06:21:32.911Z,19.24
2023-05-08T06:22:04.329Z,19.23
2023-05-08T06:22:35.744Z,19.23
2023-05-08T06:23:07.149Z,19.24
2023-05-08T06:23:38.595Z,19.24
2023-05-08T06:24:09.989Z,19.24
2023-05-08T06:24:41.395Z,19.24
2023-05-08T06:25:13.075Z,19.23
2023-05-08T06:25:44.700Z,19.23
2023-05-08T06:26:16.105Z,19.23
2023-05-08T06:26:47.532Z,19.24
2023-05-08T06:27:18.944Z,19.24
2023-05-08T06:27:50.345Z,19.23
2023-05-08T06:28:21.768Z,19.24
2023-05-08T06:28:53.177Z,19.24
2023-05-08T06:29:24.568Z,19.24
2023-05-08T06:29:56.000Z,19.24
2023-05-08T06:30:27.514Z,19.24
2023-05-08T06:30:58.989Z,19.24
2023-05-08T06:31:30.442Z,19.23
2023-05-08T06:32:01.908Z,19.25
2023-05-08T06:32:33.321Z,19.24
2023-05-08T06:33:04.818Z,19.24
2023-05-08T06:33:36.272Z,19.24
2023-05-08T06:34:07.683Z,19.24
2023-05-08T06:34:39.091Z,19.24
2023-05-08T06:35:10.628Z,19.25
2023-05-08T06:35:42.220Z,19.26
2023-05-08T06:36:13.674Z,19.26
2023-05-08T06:36:45.073Z,19.25
2023-05-08T06:37:16.498Z,19.26
2023-05-08T06:37:47.933Z,19.25
2023-05-08T06:38:19.349Z,19.25
2023-05-08T06:38:50.758Z,19.25
2023-05-08T06:39:22.164Z,19.26
2023-05-08T06:40:03.863Z,19.26
2023-05-08T06:40:42.822Z,19.24
2023-05-08T06:41:15.385Z,19.25
2023-05-08T06:41:46.998Z,19.25
2023-05-08T06:42:18.399Z,19.26
2023-05-08T06:42:49.808Z,19.25
2023-05-08T06:43:21.218Z,19.26
2023-05-08T06:43:52.619Z,19.26
2023-05-08T06:44:24.045Z,19.26
2023-05-08T06:44:55.457Z,19.26
2023-05-08T06:45:26.861Z,19.26